createdAt,value
2019-03-18T00:01:53.675Z,60.30
2019-03-18T00:04:21.152Z,60.30
2019-03-18T00:06:48.676Z,60.40
2019-03-18T00:09:16.216Z,60.00
2019-03-18T00:11:43.823Z,60.00
2019-03-18T00:14:11.435Z,59.70
2019-03-18T00:16:39.038Z,59.30
2019-03-18T00:19:06.628Z,59.10
2019-03-18T00:21:34.781Z,58.70
2019-03-18T00:24:02.461Z,58.40
2019-03-18T00:26:30.078Z,58.20
2019-03-18T00:28:58.301Z,58.20
2019-03-18T00:31:25.936Z,58.50
2019-03-18T00:33:53.600Z,58.80
2019-03-18T00:36:21.201Z,58.60
2019-03-18T00:38:48.707Z,58.40
2019-03-18T00:41:16.276Z,58.50
2019-03-18T00:43:43.820Z,58.90
2019-03-18T00:46:11.492Z,59.30
2019-03-18T00:48:38.951Z,59.40
2019-03-18T00:51:06.434Z,59.60
2019-03-18T00:53:33.925Z,60.00
2019-03-18T00:56:01.434Z,60.10
2019-03-18T00:58:28.934Z,60.30
2019-03-18T01:00:56.465Z,60.40
2019-03-18T01:03:24.008Z,60.50
2019-03-18T01:05:51.514Z,60.60
2019-03-18T01:08:19.156Z,60.60
2019-03-18T01:10:46.764Z,60.80
2019-03-18T01:13:14.268Z,60.50
2019-03-18T01:15:41.812Z,60.60
2019-03-18T01:18:09.548Z,60.30
2019-03-18T01:20:37.035Z,60.00
2019-03-18T01:23:05.248Z,59.90
2019-03-18T01:25:32.865Z,59.90
2019-03-18T01:28:00.360Z,59.50
2019-03-18T01:30:28.004Z,59.30
2019-03-18T01:32:55.548Z,59.00
2019-03-18T01:35:23.104Z,59.00
2019-03-18T01:37:50.591Z,59.10
2019-03-18T01:40:18.098Z,59.40
2019-03-18T01:42:46.151Z,59.20
2019-03-18T01:45:14.241Z,59.70
2019-03-18T01:47:41.920Z,59.80
2019-03-18T01:50:09.964Z,60.10
2019-03-18T01:52:37.467Z,60.10
2019-03-18T01:55:05.450Z,59.80
2019-03-18T01:57:33.123Z,59.70
2019-03-18T02:00:00.834Z,59.90
2019-03-18T02:02:28.452Z,59.70
2019-03-18T02:04:55.924Z,59.70
2019-03-18T02:07:23.448Z,59.00
2019-03-18T02:09:51.052Z,58.60
2019-03-18T02:12:18.666Z,58.80
2019-03-18T02:14:46.227Z,58.50
2019-03-18T02:17:13.858Z,58.60
2019-03-18T02:19:41.485Z,59.10
2019-03-18T02:22:09.222Z,59.80
2019-03-18T02:24:40.067Z,60.00
2019-03-18T02:27:07.815Z,60.40
2019-03-18T02:29:36.494Z,60.70
2019-03-18T02:32:04.185Z,60.90
2019-03-18T02:34:33.041Z,61.20
2019-03-18T02:37:00.655Z,61.40
2019-03-18T02:39:28.281Z,61.80
2019-03-18T02:41:57.014Z,61.90
2019-03-18T02:44:24.599Z,62.00
2019-03-18T02:46:52.214Z,63.00
2019-03-18T02:49:19.677Z,64.20
2019-03-18T02:51:47.356Z,64.70
2019-03-18T02:54:14.938Z,66.30
2019-03-18T02:56:42.447Z,67.10
2019-03-18T02:59:12.811Z,67.70
2019-03-18T03:01:39.425Z,68.50
2019-03-18T03:04:07.014Z,72.20
2019-03-18T03:06:34.494Z,73.10
2019-03-18T03:09:02.355Z,73.60
2019-03-18T03:11:33.944Z,73.80
2019-03-18T03:13:59.721Z,74.40
2019-03-18T03:16:27.765Z,74.20
2019-03-18T03:18:55.391Z,75.40
2019-03-18T03:21:23.127Z,75.60
2019-03-18T03:23:50.785Z,76.80
2019-03-18T03:26:20.414Z,76.70
2019-03-18T03:28:48.351Z,77.20
2019-03-18T03:31:16.170Z,77.70
2019-03-18T03:33:43.746Z,77.10
2019-03-18T03:36:11.370Z,77.30
2019-03-18T03:38:38.941Z,77.20
2019-03-18T03:41:06.721Z,77.60
2019-03-18T03:43:34.378Z,78.10
2019-03-18T03:46:02.004Z,78.90
2019-03-18T03:48:30.846Z,78.60
2019-03-18T03:50:58.449Z,79.20
2019-03-18T03:53:30.615Z,79.50
2019-03-18T03:55:57.434Z,79.90
2019-03-18T03:58:25.031Z,80.70
2019-03-18T04:00:52.798Z,80.50
2019-03-18T04:03:20.300Z,80.50
2019-03-18T04:05:47.906Z,80.30
2019-03-18T04:08:15.625Z,80.50
2019-03-18T04:10:43.194Z,81.70
2019-03-18T04:13:10.772Z,81.60
2019-03-18T04:15:38.281Z,82.00
2019-03-18T04:18:05.949Z,82.40
2019-03-18T04:20:33.539Z,82.40
2019-03-18T04:23:01.144Z,82.70
2019-03-18T04:25:30.199Z,82.60
2019-03-18T04:27:57.950Z,82.60
2019-03-18T04:30:25.588Z,82.80
2019-03-18T04:32:54.939Z,82.10
2019-03-18T04:35:22.568Z,81.70
2019-03-18T04:37:50.082Z,80.80
2019-03-18T04:40:17.724Z,80.60
2019-03-18T04:42:45.362Z,80.50
2019-03-18T04:45:13.537Z,79.80
2019-03-18T04:47:41.135Z,79.60
2019-03-18T04:50:08.739Z,79.10
2019-03-18T04:52:36.401Z,79.50
2019-03-18T04:55:04.221Z,79.10
2019-03-18T04:57:33.912Z,78.30
2019-03-18T05:00:02.119Z,77.70
2019-03-18T05:02:29.687Z,76.90
2019-03-18T05:04:57.671Z,77.20
2019-03-18T05:07:25.369Z,77.00
2019-03-18T05:09:52.876Z,76.00
2019-03-18T05:12:20.546Z,76.50
2019-03-18T05:14:48.367Z,76.20
2019-03-18T05:17:26.058Z,75.80
2019-03-18T05:19:45.889Z,75.60
2019-03-18T05:22:13.488Z,75.20
2019-03-18T05:24:41.443Z,75.10
2019-03-18T05:27:09.232Z,75.00
2019-03-18T05:29:38.682Z,74.40
2019-03-18T05:32:06.416Z,74.20
2019-03-18T05:34:34.045Z,74.80
2019-03-18T05:37:02.493Z,74.90
2019-03-18T05:39:30.171Z,74.80
2019-03-18T05:41:57.859Z,74.30
2019-03-18T05:44:25.539Z,74.30
2019-03-18T05:46:55.189Z,74.30
2019-03-18T05:49:23.134Z,74.40
2019-03-18T05:51:50.817Z,72.90
2019-03-18T05:54:18.479Z,72.50
2019-03-18T05:56:46.284Z,72.60
2019-03-18T05:59:13.936Z,72.90
2019-03-18T06:01:41.573Z,71.90
2019-03-18T06:04:09.741Z,72.40
2019-03-18T06:06:37.441Z,72.20
2019-03-18T06:09:05.983Z,71.60
2019-03-18T06:11:33.582Z,72.20
2019-03-18T06:14:01.830Z,71.00
2019-03-18T06:16:29.793Z,71.00
2019-03-18T06:19:00.208Z,69.80
2019-03-18T06:21:30.157Z,69.50
2019-03-18T06:23:58.221Z,69.40
2019-03-18T06:26:26.309Z,69.60
2019-03-18T06:28:54.252Z,68.60
2019-03-18T06:31:22.931Z,68.50
2019-03-18T06:33:50.537Z,68.30
2019-03-18T06:36:18.494Z,67.30
2019-03-18T06:38:46.310Z,66.70
2019-03-18T06:41:14.312Z,67.40
2019-03-18T06:43:42.132Z,66.70
2019-03-18T06:46:09.842Z,66.80
2019-03-18T06:48:37.553Z,66.70
2019-03-18T06:51:05.355Z,66.50
2019-03-18T06:53:33.095Z,66.30
2019-03-18T06:56:01.252Z,66.50
2019-03-18T06:58:30.343Z,66.50
2019-03-18T07:00:58.216Z,66.60
2019-03-18T07:03:27.106Z,66.60
2019-03-18T07:05:54.717Z,65.80
2019-03-18T07:08:22.376Z,65.70
2019-03-18T07:10:53.130Z,65.40
2019-03-18T07:13:19.453Z,67.00
2019-03-18T07:15:47.370Z,66.80
2019-03-18T07:18:18.464Z,66.80
2019-03-18T07:20:44.477Z,64.90
2019-03-18T07:23:12.179Z,65.10
2019-03-18T07:25:39.872Z,64.20
2019-03-18T07:28:07.535Z,63.90
2019-03-18T07:30:35.587Z,63.70
2019-03-18T07:33:08.424Z,65.00
2019-03-18T07:35:38.811Z,63.60
2019-03-18T07:38:06.785Z,63.60
2019-03-18T07:40:34.389Z,63.00
2019-03-18T07:43:05.251Z,62.50
2019-03-18T07:45:33.014Z,63.30
2019-03-18T07:48:00.787Z,62.20
2019-03-18T07:50:28.449Z,62.40
2019-03-18T07:52:57.264Z,62.30
2019-03-18T07:55:24.800Z,61.90
2019-03-18T07:57:52.673Z,61.80
2019-03-18T08:00:20.373Z,62.40
2019-03-18T08:02:47.963Z,61.30
2019-03-18T08:05:15.571Z,61.50
2019-03-18T08:07:43.225Z,60.80
2019-03-18T08:10:10.937Z,59.80
2019-03-18T08:12:38.575Z,59.60
2019-03-18T08:15:06.458Z,59.00
2019-03-18T08:17:34.159Z,59.30
2019-03-18T08:20:03.526Z,58.80
2019-03-18T08:22:31.263Z,57.60
2019-03-18T08:24:58.904Z,57.20
2019-03-18T08:27:26.735Z,57.20
2019-03-18T08:29:56.069Z,56.80
2019-03-18T08:32:23.744Z,57.90
2019-03-18T08:34:51.384Z,56.60
2019-03-18T08:37:19.061Z,56.20
2019-03-18T08:39:46.792Z,56.40
2019-03-18T08:42:14.350Z,55.70
2019-03-18T08:44:42.035Z,54.90
2019-03-18T08:47:11.025Z,55.40
2019-03-18T08:49:40.249Z,55.40
2019-03-18T08:52:07.893Z,54.70
2019-03-18T08:54:35.555Z,53.70
2019-03-18T08:57:03.349Z,53.60
2019-03-18T08:59:31.079Z,54.60
2019-03-18T09:01:58.942Z,54.10
2019-03-18T09:04:26.556Z,53.30
2019-03-18T09:06:54.215Z,52.40
2019-03-18T09:09:21.815Z,52.90
2019-03-18T09:11:49.564Z,52.30
2019-03-18T09:14:17.132Z,52.20
2019-03-18T09:16:44.688Z,50.90
2019-03-18T09:19:12.216Z,50.70
2019-03-18T09:21:39.901Z,51.10
2019-03-18T09:24:07.478Z,49.70
2019-03-18T09:26:34.988Z,49.50
2019-03-18T09:29:02.914Z,50.30
2019-03-18T09:31:31.509Z,50.90
2019-03-18T09:34:00.289Z,51.00
2019-03-18T09:36:27.959Z,50.10
2019-03-18T09:38:55.609Z,49.00
2019-03-18T09:41:23.245Z,48.80
2019-03-18T09:43:51.177Z,48.50
2019-03-18T09:46:18.814Z,50.40
2019-03-18T09:48:47.722Z,49.60
2019-03-18T09:51:15.363Z,48.90
2019-03-18T09:53:43.280Z,49.00
2019-03-18T09:56:10.991Z,49.90
2019-03-18T09:58:38.517Z,49.70
2019-03-18T10:01:06.150Z,49.70
2019-03-18T10:03:34.053Z,49.90
2019-03-18T10:06:01.815Z,49.10
2019-03-18T10:08:29.537Z,48.50
2019-03-18T10:10:57.170Z,48.50
2019-03-18T10:13:24.813Z,48.10
2019-03-18T10:15:52.389Z,48.30
2019-03-18T10:18:20.070Z,49.10
2019-03-18T10:20:47.740Z,48.60
2019-03-18T10:23:15.331Z,49.10
2019-03-18T10:25:42.928Z,48.10
2019-03-18T10:28:10.428Z,47.10
2019-03-18T10:30:38.060Z,47.50
2019-03-18T10:33:05.838Z,47.90
2019-03-18T10:35:33.410Z,47.50
2019-03-18T10:38:02.379Z,47.80
2019-03-18T10:40:31.265Z,49.60
2019-03-18T10:42:59.163Z,48.50
2019-03-18T10:45:26.829Z,47.70
2019-03-18T10:47:54.982Z,47.90
2019-03-18T10:50:33.668Z,47.90
2019-03-18T10:53:02.564Z,48.80
2019-03-18T10:55:33.300Z,48.80
2019-03-18T10:58:19.938Z,46.40
2019-03-18T11:00:55.895Z,46.90
2019-03-18T11:03:26.621Z,47.10
2019-03-18T11:05:54.699Z,46.70
2019-03-18T11:08:34.971Z,46.70
2019-03-18T11:11:28.936Z,46.30
2019-03-18T11:13:58.489Z,45.60
2019-03-18T11:16:31.225Z,44.90
2019-03-18T11:19:06.893Z,44.30
2019-03-18T11:21:37.656Z,44.40
2019-03-18T11:24:06.448Z,44.10
2019-03-18T11:26:37.011Z,43.80
2019-03-18T11:29:05.905Z,44.50
2019-03-18T11:31:45.473Z,44.10
2019-03-18T11:34:16.420Z,44.10
2019-03-18T11:37:02.396Z,44.80
2019-03-18T11:39:36.290Z,45.50
2019-03-18T11:42:13.112Z,43.90
2019-03-18T11:44:57.224Z,44.00
2019-03-18T11:47:29.301Z,43.60
2019-03-18T11:50:11.155Z,44.10
2019-03-18T11:52:34.692Z,43.80
2019-03-18T11:55:22.943Z,44.60
2019-03-18T11:57:55.837Z,44.20
2019-03-18T12:00:37.196Z,44.30
2019-03-18T12:03:11.644Z,43.70
2019-03-18T12:05:59.181Z,43.90
2019-03-18T12:08:27.437Z,44.90
2019-03-18T12:10:55.220Z,44.00
2019-03-18T12:13:25.261Z,44.10
2019-03-18T12:15:52.913Z,44.70
2019-03-18T12:18:20.516Z,45.10
2019-03-18T12:20:48.137Z,43.80
2019-03-18T12:23:16.234Z,44.20
2019-03-18T12:25:44.059Z,44.10
2019-03-18T12:28:11.789Z,44.70
2019-03-18T12:30:39.466Z,45.00
2019-03-18T12:33:07.246Z,45.00
2019-03-18T12:35:35.279Z,44.80
2019-03-18T12:38:02.987Z,43.60
2019-03-18T12:40:30.871Z,44.70
2019-03-18T12:42:58.689Z,44.20
2019-03-18T12:45:26.343Z,44.40
2019-03-18T12:47:54.028Z,45.50
2019-03-18T12:50:55.197Z,45.90
2019-03-18T12:52:56.446Z,45.60
2019-03-18T12:55:24.119Z,46.70
2019-03-18T12:57:51.774Z,48.60
2019-03-18T13:00:20.451Z,49.50
2019-03-18T13:02:48.318Z,50.00
2019-03-18T13:05:16.379Z,51.00
2019-03-18T13:07:44.157Z,51.40
2019-03-18T13:10:12.519Z,50.30
2019-03-18T13:12:40.488Z,50.70
2019-03-18T13:15:10.161Z,49.40
2019-03-18T13:17:37.856Z,48.40
2019-03-18T13:20:06.408Z,48.30
2019-03-18T13:22:34.288Z,48.70
2019-03-18T13:25:02.021Z,49.30
2019-03-18T13:27:29.808Z,49.10
2019-03-18T13:29:57.491Z,49.10
2019-03-18T13:32:25.215Z,49.20
2019-03-18T13:34:52.919Z,48.00
2019-03-18T13:37:20.629Z,47.30
2019-03-18T13:39:48.370Z,46.70
2019-03-18T13:42:16.042Z,46.40
2019-03-18T13:44:43.799Z,45.90
2019-03-18T13:47:11.529Z,46.40
2019-03-18T13:49:39.241Z,44.80
2019-03-18T13:52:06.984Z,44.00
2019-03-18T13:54:34.654Z,43.50
2019-03-18T13:57:02.234Z,44.20
2019-03-18T13:59:31.200Z,44.50
2019-03-18T14:01:58.874Z,45.40
2019-03-18T14:04:26.469Z,44.60
2019-03-18T14:06:54.705Z,46.00
2019-03-18T14:09:22.524Z,46.00
2019-03-18T14:11:50.434Z,45.50
2019-03-18T14:14:21.636Z,45.60
2019-03-18T14:16:49.284Z,43.90
2019-03-18T14:19:17.173Z,43.80
2019-03-18T14:21:46.271Z,42.50
2019-03-18T14:24:13.954Z,42.80
2019-03-18T14:26:42.039Z,42.80
2019-03-18T14:29:11.922Z,42.40
2019-03-18T14:31:39.593Z,43.10
2019-03-18T14:34:08.797Z,42.30
2019-03-18T14:36:36.420Z,42.60
2019-03-18T14:39:05.945Z,42.60
2019-03-18T14:41:37.153Z,42.70
2019-03-18T14:44:06.250Z,43.10
2019-03-18T14:46:34.514Z,43.90
2019-03-18T14:49:02.054Z,42.20
2019-03-18T14:51:45.143Z,43.70
2019-03-18T14:54:02.421Z,42.10
2019-03-18T14:56:39.812Z,42.70
2019-03-18T14:59:10.056Z,42.30
2019-03-18T15:01:37.705Z,40.90
2019-03-18T15:04:05.452Z,40.40
2019-03-18T15:06:33.279Z,39.30
2019-03-18T15:09:00.921Z,39.60
2019-03-18T15:11:28.791Z,40.80
2019-03-18T15:13:56.534Z,40.80
2019-03-18T15:16:24.320Z,39.90
2019-03-18T15:18:52.155Z,39.60
2019-03-18T15:21:19.832Z,38.50
2019-03-18T15:23:47.662Z,38.30
2019-03-18T15:26:15.567Z,36.80
2019-03-18T15:28:43.438Z,36.40
2019-03-18T15:31:11.447Z,37.30
2019-03-18T15:33:39.150Z,37.60
2019-03-18T15:36:07.049Z,37.20
2019-03-18T15:38:34.770Z,37.10
2019-03-18T15:41:02.535Z,37.00
2019-03-18T15:43:30.275Z,37.80
2019-03-18T15:45:59.180Z,38.60
2019-03-18T15:48:30.352Z,39.00
2019-03-18T15:50:58.310Z,39.70
2019-03-18T15:53:25.957Z,40.40
2019-03-18T15:55:53.988Z,40.10
2019-03-18T15:58:21.785Z,40.30
2019-03-18T16:00:49.427Z,41.60
2019-03-18T16:03:17.142Z,41.20
2019-03-18T16:05:46.899Z,42.80
2019-03-18T16:08:14.489Z,42.30
2019-03-18T16:10:42.137Z,41.80
2019-03-18T16:13:10.037Z,43.20
2019-03-18T16:15:37.808Z,42.80
2019-03-18T16:18:05.425Z,42.80
2019-03-18T16:20:32.984Z,42.10
2019-03-18T16:23:00.711Z,43.00
2019-03-18T16:25:28.330Z,42.70
2019-03-18T16:27:57.719Z,42.70
2019-03-18T16:30:25.417Z,42.30
2019-03-18T16:32:53.091Z,43.00
2019-03-18T16:35:20.795Z,43.50
2019-03-18T16:37:50.817Z,43.80
2019-03-18T16:40:18.491Z,44.10
2019-03-18T16:42:46.267Z,44.10
2019-03-18T16:45:14.213Z,44.10
2019-03-18T16:47:42.158Z,44.10
2019-03-18T16:50:11.673Z,44.70
2019-03-18T16:52:40.336Z,44.60
2019-03-18T16:55:08.039Z,44.70
2019-03-18T16:57:35.701Z,44.80
2019-03-18T17:00:04.862Z,45.00
2019-03-18T17:02:32.676Z,45.40
2019-03-18T17:05:00.468Z,45.50
2019-03-18T17:07:28.223Z,45.00
2019-03-18T17:09:56.030Z,45.30
2019-03-18T17:12:23.737Z,46.10
2019-03-18T17:14:54.221Z,45.60
2019-03-18T17:17:22.108Z,46.30
2019-03-18T17:19:50.167Z,46.00
2019-03-18T17:22:17.880Z,46.10
2019-03-18T17:24:45.532Z,45.40
2019-03-18T17:27:13.239Z,45.40
2019-03-18T17:29:40.864Z,45.30
2019-03-18T17:32:08.575Z,45.30
2019-03-18T17:34:38.332Z,45.10
2019-03-18T17:37:05.992Z,45.20
2019-03-18T17:39:33.866Z,44.90
2019-03-18T17:42:01.542Z,44.80
2019-03-18T17:44:29.368Z,44.90
2019-03-18T17:46:57.413Z,45.10
2019-03-18T17:49:25.446Z,45.00
2019-03-18T17:51:53.083Z,45.30
2019-03-18T17:54:20.955Z,45.30
2019-03-18T17:56:48.725Z,45.00
2019-03-18T17:59:16.524Z,45.10
2019-03-18T18:01:44.206Z,45.60
2019-03-18T18:04:12.119Z,45.60
2019-03-18T18:06:39.622Z,46.30
2019-03-18T18:09:07.561Z,45.80
2019-03-18T18:11:35.395Z,45.90
2019-03-18T18:14:03.193Z,46.50
2019-03-18T18:16:30.957Z,46.20
2019-03-18T18:19:00.094Z,46.00
2019-03-18T18:21:27.923Z,45.80
2019-03-18T18:23:55.663Z,46.80
2019-03-18T18:26:23.299Z,46.60
2019-03-18T18:29:02.298Z,46.60
2019-03-18T18:31:29.914Z,47.50
2019-03-18T18:33:57.724Z,47.40
2019-03-18T18:36:25.515Z,47.70
2019-03-18T18:38:53.166Z,47.90
2019-03-18T18:41:20.855Z,48.80
2019-03-18T18:43:48.547Z,48.00
2019-03-18T18:46:16.075Z,48.60
2019-03-18T18:48:43.638Z,48.80
2019-03-18T18:51:11.321Z,49.00
2019-03-18T18:53:39.039Z,49.40
2019-03-18T18:56:06.838Z,49.40
2019-03-18T18:58:34.682Z,49.40
2019-03-18T19:01:02.469Z,49.90
2019-03-18T19:03:31.204Z,49.70
2019-03-18T19:05:59.029Z,49.70
2019-03-18T19:08:26.785Z,49.60
2019-03-18T19:10:54.602Z,49.50
2019-03-18T19:13:22.266Z,49.60
2019-03-18T19:15:49.951Z,49.70
2019-03-18T19:18:17.689Z,50.00
2019-03-18T19:20:45.378Z,50.20
2019-03-18T19:23:12.985Z,50.80
2019-03-18T19:25:43.506Z,50.90
2019-03-18T19:28:11.209Z,50.70
2019-03-18T19:30:38.891Z,51.30
2019-03-18T19:33:06.526Z,51.80
2019-03-18T19:35:44.504Z,51.80
2019-03-18T19:38:12.164Z,51.80
2019-03-18T19:40:39.972Z,52.20
2019-03-18T19:43:07.675Z,52.40
2019-03-18T19:45:35.401Z,52.50
2019-03-18T19:48:03.095Z,52.70
2019-03-18T19:50:34.090Z,52.90
2019-03-18T19:53:01.920Z,53.00
2019-03-18T19:55:29.676Z,53.30
2019-03-18T19:57:57.348Z,53.10
2019-03-18T20:00:25.165Z,53.50
2019-03-18T20:02:52.919Z,53.30
2019-03-18T20:05:20.638Z,53.60
2019-03-18T20:07:48.591Z,53.60
2019-03-18T20:10:16.254Z,54.00
2019-03-18T20:12:47.433Z,53.90
2019-03-18T20:15:15.218Z,54.20
2019-03-18T20:17:42.948Z,54.70
2019-03-18T20:20:11.742Z,54.80
2019-03-18T20:22:39.493Z,54.90
2019-03-18T20:25:07.611Z,55.40
2019-03-18T20:27:35.316Z,55.40
2019-03-18T20:30:04.487Z,55.20
2019-03-18T20:32:32.186Z,55.20
2019-03-18T20:34:59.847Z,55.30
2019-03-18T20:37:27.539Z,55.20
2019-03-18T20:39:56.394Z,55.70
2019-03-18T20:42:24.074Z,56.40
2019-03-18T20:44:53.678Z,56.60
2019-03-18T20:47:21.338Z,56.90
2019-03-18T20:49:50.569Z,57.10
2019-03-18T20:52:18.348Z,56.70
2019-03-18T20:54:46.124Z,57.00
2019-03-18T20:57:13.907Z,56.80
2019-03-18T20:59:43.577Z,57.10
2019-03-18T21:02:11.306Z,56.70
2019-03-18T21:04:40.924Z,56.70
2019-03-18T21:07:08.461Z,57.10
2019-03-18T21:09:36.149Z,57.10
2019-03-18T21:12:04.073Z,57.20
2019-03-18T21:14:32.818Z,57.20
2019-03-18T21:17:00.555Z,57.50
2019-03-18T21:19:28.215Z,57.40
2019-03-18T21:21:57.628Z,57.50
2019-03-18T21:24:25.271Z,57.80
2019-03-18T21:26:55.025Z,58.10
2019-03-18T21:29:23.753Z,58.80
2019-03-18T21:31:51.455Z,58.60
2019-03-18T21:34:19.163Z,58.60
2019-03-18T21:36:46.842Z,58.40
2019-03-18T21:39:14.515Z,58.40
2019-03-18T21:41:42.206Z,58.30
2019-03-18T21:44:11.111Z,58.10
2019-03-18T21:46:40.216Z,58.40
2019-03-18T21:49:07.848Z,58.30
2019-03-18T21:51:35.597Z,58.90
2019-03-18T21:54:03.613Z,59.00
2019-03-18T21:56:31.316Z,59.10
2019-03-18T21:58:59.042Z,58.90
2019-03-18T22:01:26.673Z,58.70
2019-03-18T22:03:56.835Z,59.00
2019-03-18T22:06:24.507Z,59.50
2019-03-18T22:08:52.288Z,59.10
2019-03-18T22:11:20.307Z,59.40
2019-03-18T22:13:48.038Z,59.80
2019-03-18T22:16:15.750Z,59.70
2019-03-18T22:18:47.479Z,59.80
2019-03-18T22:21:15.451Z,59.80
2019-03-18T22:23:44.527Z,60.00
2019-03-18T22:26:12.257Z,60.10
2019-03-18T22:28:40.091Z,60.10
2019-03-18T22:31:07.670Z,60.20
2019-03-18T22:33:35.412Z,60.20
2019-03-18T22:36:03.143Z,60.10
2019-03-18T22:38:30.841Z,60.20
2019-03-18T22:40:58.500Z,60.30
2019-03-18T22:43:26.126Z,60.40
2019-03-18T22:45:53.733Z,60.40
2019-03-18T22:48:21.379Z,60.60
2019-03-18T22:50:49.239Z,60.60
2019-03-18T22:53:16.794Z,60.60
2019-03-18T22:55:44.480Z,60.60
2019-03-18T22:58:12.144Z,60.80
2019-03-18T23:00:47.223Z,60.70
2019-03-18T23:03:17.506Z,60.60
2019-03-18T23:05:45.194Z,60.70
2019-03-18T23:08:13.208Z,60.90
2019-03-18T23:10:40.903Z,60.90
2019-03-18T23:13:08.636Z,61.00
2019-03-18T23:15:36.343Z,61.10
2019-03-18T23:18:04.205Z,61.30
2019-03-18T23:20:31.964Z,61.10
2019-03-18T23:22:59.638Z,61.00
2019-03-18T23:25:27.404Z,61.00
2019-03-18T23:27:55.054Z,61.00
2019-03-18T23:30:23.238Z,60.90
2019-03-18T23:32:50.931Z,60.80
2019-03-18T23:35:19.469Z,60.80
2019-03-18T23:37:47.136Z,60.80
2019-03-18T23:40:15.770Z,60.70
2019-03-18T23:42:44.034Z,60.60
2019-03-18T23:45:12.023Z,60.60
2019-03-18T23:47:39.698Z,60.70
2019-03-18T23:50:08.391Z,60.60
2019-03-18T23:52:36.355Z,60.60
2019-03-18T23:55:05.408Z,60.70
2019-03-18T23:57:33.222Z,60.60
